createdAt,value
2023-03-24T00:01:29.914Z,15.63
2023-03-24T00:03:57.414Z,15.63
2023-03-24T00:06:26.393Z,14.25
2023-03-24T00:08:53.353Z,13.75
2023-03-24T00:11:21.144Z,15.52
2023-03-24T00:13:50.090Z,16.30
2023-03-24T00:16:19.554Z,17.63
2023-03-24T00:18:50.279Z,15.32
2023-03-24T00:21:18.395Z,13.10
2023-03-24T00:23:47.639Z,14.98
2023-03-24T00:26:15.548Z,13.05
2023-03-24T00:28:48.352Z,20.67
2023-03-24T00:31:16.805Z,16.77
2023-03-24T00:33:48.162Z,19.80
2023-03-24T00:36:14.891Z,20.83
2023-03-24T00:38:41.957Z,13.98
2023-03-24T00:41:10.711Z,15.13
2023-03-24T00:43:37.918Z,15.17
2023-03-24T00:46:07.783Z,17.08
2023-03-24T00:48:35.183Z,17.17
2023-03-24T00:51:02.978Z,16.15
2023-03-24T00:53:29.771Z,16.02
2023-03-24T00:55:58.281Z,13.75
2023-03-24T00:58:25.650Z,16.95
2023-03-24T01:00:55.087Z,15.52
2023-03-24T01:03:27.079Z,16.05
2023-03-24T01:06:03.209Z,17.13
2023-03-24T01:08:31.491Z,15.13
2023-03-24T01:11:01.277Z,18.42
2023-03-24T01:13:29.522Z,14.88
2023-03-24T01:15:56.690Z,17.50
2023-03-24T01:18:27.760Z,18.15
2023-03-24T01:20:54.476Z,14.90
2023-03-24T01:23:23.648Z,12.85
2023-03-24T01:25:51.069Z,17.08
2023-03-24T01:28:23.378Z,13.10
2023-03-24T01:30:50.669Z,15.25
2023-03-24T01:33:17.627Z,13.80
2023-03-24T01:35:44.578Z,13.05
2023-03-24T01:38:12.703Z,14.23
2023-03-24T01:40:42.594Z,18.95
2023-03-24T01:43:23.774Z,11.90
2023-03-24T01:45:56.355Z,12.40
2023-03-24T01:48:35.684Z,10.77
2023-03-24T01:51:10.967Z,12.93
2023-03-24T01:53:41.951Z,16.55
2023-03-24T01:56:10.426Z,12.35
2023-03-24T01:58:39.841Z,12.07
2023-03-24T02:01:07.044Z,10.38
2023-03-24T02:03:38.631Z,11.52
2023-03-24T02:06:06.457Z,8.57
2023-03-24T02:08:52.329Z,10.27
2023-03-24T02:11:20.486Z,11.48
2023-03-24T02:13:47.122Z,14.90
2023-03-24T02:16:44.996Z,8.65
2023-03-24T02:19:48.709Z,10.93
2023-03-24T02:22:33.680Z,10.50
2023-03-24T02:25:27.413Z,14.35
2023-03-24T02:28:10.176Z,10.43
2023-03-24T02:31:04.688Z,7.97
2023-03-24T02:34:13.490Z,10.65
2023-03-24T02:37:08.085Z,7.38
2023-03-24T02:40:13.134Z,8.85
2023-03-24T02:43:24.705Z,8.23
2023-03-24T02:46:17.315Z,11.40
2023-03-24T02:49:04.511Z,7.22
2023-03-24T02:51:40.424Z,12.02
2023-03-24T02:54:43.542Z,8.10
2023-03-24T02:57:28.165Z,11.52
2023-03-24T03:00:01.817Z,10.25
2023-03-24T03:02:33.017Z,8.38
2023-03-24T03:05:37.462Z,9.40
2023-03-24T03:08:07.780Z,8.38
2023-03-24T03:10:45.298Z,10.60
2023-03-24T03:13:24.310Z,10.07
2023-03-24T03:15:57.131Z,10.25
2023-03-24T03:18:43.424Z,8.05
2023-03-24T03:21:14.602Z,10.52
2023-03-24T03:23:49.868Z,12.20
2023-03-24T03:26:19.594Z,11.93
2023-03-24T03:31:29.666Z,8.80
2023-03-24T03:34:08.275Z,12.32
2023-03-24T03:36:45.973Z,9.43
2023-03-24T03:39:22.068Z,9.75
2023-03-24T03:41:48.867Z,8.57
2023-03-24T03:44:15.988Z,9.05
2023-03-24T03:46:43.379Z,11.35
2023-03-24T03:49:10.180Z,12.15
2023-03-24T03:51:37.065Z,11.35
2023-03-24T03:54:07.106Z,9.82
2023-03-24T03:56:36.101Z,11.93
2023-03-24T03:59:04.149Z,12.75
2023-03-24T04:01:37.462Z,10.60
2023-03-24T04:04:04.289Z,14.02
2023-03-24T04:06:36.862Z,11.85
2023-03-24T04:09:34.323Z,16.08
2023-03-24T04:12:43.449Z,12.68
2023-03-24T04:15:24.449Z,15.27
2023-03-24T04:18:06.587Z,14.13
2023-03-24T04:21:19.924Z,14.02
2023-03-24T04:24:27.483Z,14.95
2023-03-24T04:27:09.789Z,15.80
2023-03-24T04:29:46.513Z,18.65
2023-03-24T04:32:20.989Z,15.77
2023-03-24T04:34:54.443Z,17.88
2023-03-24T04:37:28.352Z,16.67
2023-03-24T04:39:59.063Z,19.65
2023-03-24T04:42:32.752Z,22.13
2023-03-24T04:45:00.179Z,18.63
2023-03-24T04:47:31.867Z,21.55
2023-03-24T04:50:31.964Z,22.33
2023-03-24T04:52:59.035Z,18.13
2023-03-24T04:55:49.039Z,18.35
2023-03-24T04:58:19.819Z,23.13
2023-03-24T05:00:46.902Z,21.75
2023-03-24T05:03:16.690Z,21.15
2023-03-24T05:05:48.957Z,21.90
2023-03-24T05:08:17.566Z,22.45
2023-03-24T05:10:44.610Z,21.20
2023-03-24T05:13:11.548Z,23.13
2023-03-24T05:15:38.419Z,19.70
2023-03-24T05:18:05.928Z,20.67
2023-03-24T05:20:32.921Z,26.73
2023-03-24T05:22:59.580Z,21.63
2023-03-24T05:25:26.378Z,21.77
2023-03-24T05:27:53.015Z,21.27
2023-03-24T05:30:22.475Z,24.63
2023-03-24T05:32:49.113Z,22.60
2023-03-24T05:35:15.993Z,23.25
2023-03-24T05:37:42.815Z,27.05
2023-03-24T05:40:10.196Z,24.60
2023-03-24T05:42:36.901Z,21.42
2023-03-24T05:45:04.591Z,22.95
2023-03-24T05:47:31.474Z,22.25
2023-03-24T05:49:58.083Z,21.63
2023-03-24T05:52:26.107Z,24.77
2023-03-24T05:54:54.113Z,23.58
2023-03-24T05:57:21.135Z,23.65
2023-03-24T05:59:47.803Z,25.85
2023-03-24T06:02:14.973Z,19.63
2023-03-24T06:04:46.220Z,26.20
2023-03-24T06:07:13.301Z,24.95
2023-03-24T06:09:42.429Z,26.48
2023-03-24T06:12:10.393Z,20.38
2023-03-24T06:14:37.125Z,22.50
2023-03-24T06:17:03.787Z,23.10
2023-03-24T06:19:32.781Z,20.95
2023-03-24T06:22:02.775Z,16.58
2023-03-24T06:24:30.211Z,15.43
2023-03-24T06:26:59.072Z,18.08
2023-03-24T06:29:25.678Z,15.85
2023-03-24T06:31:52.309Z,15.93
2023-03-24T06:34:18.948Z,15.32
2023-03-24T06:36:45.527Z,16.83
2023-03-24T06:39:12.107Z,10.93
2023-03-24T06:41:38.781Z,12.77
2023-03-24T06:44:05.636Z,10.57
2023-03-24T06:46:32.452Z,9.30
2023-03-24T06:48:59.104Z,8.90
2023-03-24T06:51:25.738Z,11.35
2023-03-24T06:53:52.461Z,9.60
2023-03-24T06:56:21.133Z,7.10
2023-03-24T06:58:49.192Z,9.63
2023-03-24T07:01:16.119Z,7.72
2023-03-24T07:03:43.307Z,8.13
2023-03-24T07:06:10.539Z,7.80
2023-03-24T07:08:38.784Z,5.70
2023-03-24T07:11:07.478Z,6.75
2023-03-24T07:13:34.292Z,6.68
2023-03-24T07:16:01.082Z,6.72
2023-03-24T07:18:27.867Z,6.55
2023-03-24T07:20:54.618Z,8.82
2023-03-24T07:23:21.413Z,5.93
2023-03-24T07:25:48.109Z,6.10
2023-03-24T07:28:14.680Z,9.15
2023-03-24T07:30:41.529Z,6.10
2023-03-24T07:33:10.798Z,7.10
2023-03-24T07:35:37.687Z,7.43
2023-03-24T07:38:04.449Z,7.53
2023-03-24T07:40:31.698Z,8.02
2023-03-24T07:43:05.820Z,10.02
2023-03-24T07:45:33.638Z,8.68
2023-03-24T07:48:02.114Z,8.77
2023-03-24T07:50:29.930Z,9.15
2023-03-24T07:52:59.396Z,9.98
2023-03-24T07:55:27.057Z,9.20
2023-03-24T07:57:53.700Z,13.25
2023-03-24T08:00:21.428Z,10.65
2023-03-24T08:02:51.974Z,12.38
2023-03-24T08:05:20.630Z,13.50
2023-03-24T08:07:53.389Z,12.77
2023-03-24T08:10:23.268Z,13.27
2023-03-24T08:12:50.467Z,11.65
2023-03-24T08:15:17.537Z,13.70
2023-03-24T08:17:44.682Z,11.75
2023-03-24T08:20:15.314Z,14.15
2023-03-24T08:22:44.335Z,12.00
2023-03-24T08:25:12.379Z,10.70
2023-03-24T08:27:40.137Z,11.07
2023-03-24T08:30:08.641Z,11.07
2023-03-24T08:32:35.469Z,11.20
2023-03-24T08:35:04.897Z,13.88
2023-03-24T08:37:31.882Z,12.55
2023-03-24T08:39:58.927Z,12.70
2023-03-24T08:42:26.221Z,16.65
2023-03-24T08:44:53.089Z,13.98
2023-03-24T08:47:19.690Z,11.35
2023-03-24T08:49:46.282Z,13.20
2023-03-24T08:52:12.957Z,19.52
2023-03-24T08:54:39.518Z,16.38
2023-03-24T08:57:06.205Z,15.18
2023-03-24T08:59:32.886Z,13.57
2023-03-24T09:01:59.519Z,14.23
2023-03-24T09:04:26.300Z,10.48
2023-03-24T09:06:53.530Z,10.52
2023-03-24T09:09:20.363Z,11.23
2023-03-24T09:11:48.661Z,9.27
2023-03-24T09:14:15.486Z,9.38
2023-03-24T09:16:43.854Z,8.05
2023-03-24T09:19:11.099Z,5.50
2023-03-24T09:21:38.474Z,6.10
2023-03-24T09:24:05.502Z,6.95
2023-03-24T09:26:33.864Z,5.57
2023-03-24T09:29:00.734Z,4.63
2023-03-24T09:31:27.531Z,4.53
2023-03-24T09:33:54.203Z,3.92
2023-03-24T09:36:21.088Z,1.38
2023-03-24T09:38:47.890Z,2.63
2023-03-24T09:41:18.264Z,3.30
2023-03-24T09:43:49.384Z,5.28
2023-03-24T09:46:30.402Z,8.52
2023-03-24T09:49:00.159Z,4.95
2023-03-24T09:54:29.372Z,3.75
2023-03-24T09:56:57.583Z,6.85
2023-03-24T09:59:26.954Z,2.92
2023-03-24T10:01:53.676Z,6.72
2023-03-24T10:04:24.521Z,4.75
2023-03-24T10:07:07.069Z,5.95
2023-03-24T10:09:37.481Z,4.60
2023-03-24T10:12:25.834Z,5.82
2023-03-24T10:15:34.678Z,4.85
2023-03-24T10:18:20.782Z,4.65
2023-03-24T10:20:58.233Z,3.30
2023-03-24T10:23:46.207Z,5.30
2023-03-24T10:26:27.665Z,4.22
2023-03-24T10:29:17.159Z,2.70
2023-03-24T10:31:48.429Z,6.25
2023-03-24T10:34:15.896Z,7.05
2023-03-24T10:36:43.489Z,6.80
2023-03-24T10:39:20.946Z,4.18
2023-03-24T10:41:53.101Z,4.68
2023-03-24T10:44:21.238Z,6.35
2023-03-24T10:46:52.459Z,3.13
2023-03-24T10:49:21.688Z,7.60
2023-03-24T10:51:51.066Z,2.10
2023-03-24T10:54:23.384Z,4.45
2023-03-24T10:57:06.098Z,3.80
2023-03-24T10:59:37.285Z,9.43
2023-03-24T11:02:16.457Z,6.72
2023-03-24T11:04:58.257Z,3.58
2023-03-24T11:07:35.497Z,7.00
2023-03-24T11:10:11.683Z,4.43
2023-03-24T11:12:40.953Z,7.93
2023-03-24T11:15:21.191Z,3.60
2023-03-24T11:17:56.437Z,4.88
2023-03-24T11:20:32.550Z,4.45
2023-03-24T11:23:10.628Z,5.85
2023-03-24T11:25:40.869Z,3.05
2023-03-24T11:28:14.718Z,6.72
2023-03-24T11:30:53.619Z,4.00
2023-03-24T11:33:34.860Z,9.55
2023-03-24T11:36:26.740Z,11.68
2023-03-24T11:39:10.669Z,3.42
2023-03-24T11:41:40.980Z,3.58
2023-03-24T11:44:23.809Z,5.25
2023-03-24T11:46:56.014Z,2.15
2023-03-24T11:49:27.586Z,3.90
2023-03-24T11:51:55.911Z,4.40
2023-03-24T11:54:30.100Z,1.58
2023-03-24T11:57:04.520Z,3.40
2023-03-24T11:59:42.178Z,2.40
2023-03-24T12:02:10.539Z,1.80
2023-03-24T12:05:02.324Z,3.28
2023-03-24T12:07:47.735Z,6.57
2023-03-24T12:10:49.564Z,1.60
2023-03-24T12:13:33.370Z,4.05
2023-03-24T12:16:24.887Z,1.48
2023-03-24T12:19:16.428Z,3.70
2023-03-24T12:21:57.101Z,3.60
2023-03-24T12:24:54.610Z,4.88
2023-03-24T12:27:31.777Z,2.78
2023-03-24T12:30:07.641Z,3.05
2023-03-24T12:32:48.664Z,3.08
2023-03-24T12:35:41.075Z,7.30
2023-03-24T12:38:20.999Z,5.28
2023-03-24T12:41:29.436Z,4.60
2023-03-24T12:44:23.563Z,1.25
2023-03-24T12:47:05.288Z,1.55
2023-03-24T12:49:40.942Z,2.40
2023-03-24T12:52:15.301Z,4.15
2023-03-24T12:55:06.360Z,4.13
2023-03-24T12:57:40.486Z,7.28
2023-03-24T13:00:16.875Z,9.20
2023-03-24T13:02:53.199Z,4.80
2023-03-24T13:05:27.546Z,7.10
2023-03-24T13:07:58.902Z,9.30
2023-03-24T13:10:28.442Z,3.75
2023-03-24T13:12:58.221Z,5.80
2023-03-24T13:15:46.755Z,3.30
2023-03-24T13:18:34.696Z,7.57
2023-03-24T13:21:12.111Z,3.50
2023-03-24T13:24:03.764Z,4.00
2023-03-24T13:26:54.140Z,5.50
2023-03-24T13:29:58.401Z,6.90
2023-03-24T13:32:54.047Z,7.43
2023-03-24T13:35:32.062Z,3.83
2023-03-24T13:38:15.395Z,4.05
2023-03-24T13:40:46.060Z,1.83
2023-03-24T13:43:29.070Z,5.75
2023-03-24T13:46:08.999Z,6.55
2023-03-24T13:48:39.118Z,6.75
2023-03-24T13:51:18.308Z,5.03
2023-03-24T13:53:54.650Z,3.90
2023-03-24T13:56:31.621Z,4.90
2023-03-24T13:58:58.205Z,5.22
2023-03-24T14:01:39.781Z,7.05
2023-03-24T14:04:26.320Z,3.65
2023-03-24T14:06:57.353Z,2.85
2023-03-24T14:09:30.570Z,4.97
2023-03-24T14:12:03.664Z,5.78
2023-03-24T14:14:33.554Z,3.35
2023-03-24T14:17:06.279Z,3.92
2023-03-24T14:19:40.660Z,5.93
2023-03-24T14:22:30.469Z,4.85
2023-03-24T14:25:19.201Z,10.50
2023-03-24T14:27:48.262Z,8.03
2023-03-24T14:30:26.281Z,4.95
2023-03-24T14:32:56.577Z,11.50
2023-03-24T14:35:46.658Z,13.05
2023-03-24T14:38:17.643Z,3.00
2023-03-24T14:40:51.062Z,7.10
2023-03-24T14:43:48.804Z,12.23
2023-03-24T14:46:34.091Z,6.78
2023-03-24T14:49:16.634Z,8.52
2023-03-24T14:51:55.240Z,4.35
2023-03-24T14:54:36.849Z,3.35
2023-03-24T14:57:04.781Z,4.45
2023-03-24T14:59:41.655Z,10.63
2023-03-24T15:02:17.158Z,6.78
2023-03-24T15:05:25.196Z,3.72
2023-03-24T15:08:04.068Z,2.95
2023-03-24T15:10:40.911Z,4.35
2023-03-24T15:13:29.959Z,6.85
2023-03-24T15:15:57.356Z,4.60
2023-03-24T15:18:25.960Z,8.32
2023-03-24T15:20:53.741Z,2.10
2023-03-24T15:23:24.268Z,5.55
2023-03-24T15:25:52.278Z,5.00
2023-03-24T15:28:30.751Z,7.63
2023-03-24T15:30:59.477Z,3.22
2023-03-24T15:33:26.353Z,2.93
2023-03-24T15:35:57.911Z,2.40
2023-03-24T15:38:32.481Z,3.15
2023-03-24T15:41:09.533Z,4.75
2023-03-24T15:43:44.648Z,2.70
2023-03-24T15:46:27.870Z,5.10
2023-03-24T15:48:57.590Z,3.42
2023-03-24T15:54:24.220Z,3.15
2023-03-24T15:57:03.040Z,3.13
2023-03-24T15:59:36.992Z,3.83
2023-03-24T16:02:10.728Z,3.97
2023-03-24T16:04:38.437Z,2.55
2023-03-24T16:07:05.138Z,2.63
2023-03-24T16:09:38.055Z,2.17
2023-03-24T16:12:10.635Z,3.60
2023-03-24T16:14:38.797Z,3.63
2023-03-24T16:17:05.751Z,5.43
2023-03-24T16:19:33.199Z,5.53
2023-03-24T16:21:59.978Z,4.30
2023-03-24T16:24:26.640Z,4.22
2023-03-24T16:26:53.244Z,4.35
2023-03-24T16:29:22.835Z,3.20
2023-03-24T16:34:19.268Z,4.20
2023-03-24T16:36:51.669Z,5.40
2023-03-24T16:39:26.706Z,6.55
2023-03-24T16:41:54.037Z,3.90
2023-03-24T16:44:21.337Z,7.32
2023-03-24T16:46:51.022Z,7.60
2023-03-24T16:49:19.299Z,5.47
2023-03-24T16:51:46.915Z,8.20
2023-03-24T16:54:14.117Z,3.13
2023-03-24T16:56:41.174Z,6.18
2023-03-24T16:59:09.032Z,3.17
2023-03-24T17:01:38.044Z,6.15
2023-03-24T17:04:17.192Z,4.63
2023-03-24T17:06:49.017Z,5.15
2023-03-24T17:09:15.750Z,4.90
2023-03-24T17:11:51.426Z,8.30
2023-03-24T17:14:18.321Z,5.75
2023-03-24T17:16:48.146Z,4.85
2023-03-24T17:19:18.390Z,5.72
2023-03-24T17:21:49.131Z,4.80
2023-03-24T17:24:16.152Z,3.17
2023-03-24T17:26:43.200Z,7.47
2023-03-24T17:29:12.147Z,9.55
2023-03-24T17:31:39.312Z,4.60
2023-03-24T17:34:20.804Z,3.53
2023-03-24T17:36:50.134Z,6.68
2023-03-24T17:39:18.411Z,5.68
2023-03-24T17:41:45.607Z,4.15
2023-03-24T17:44:12.635Z,5.70
2023-03-24T17:46:39.332Z,6.28
2023-03-24T17:49:06.537Z,5.45
2023-03-24T17:51:33.550Z,6.93
2023-03-24T17:54:00.765Z,3.30
2023-03-24T17:56:27.471Z,5.65
2023-03-24T18:01:47.237Z,3.50
2023-03-24T18:04:13.985Z,6.50
2023-03-24T18:06:42.379Z,5.72
2023-03-24T18:09:09.301Z,10.73
2023-03-24T18:11:36.239Z,6.00
2023-03-24T18:14:02.969Z,7.13
2023-03-24T18:16:35.293Z,2.95
2023-03-24T18:19:02.367Z,8.40
2023-03-24T18:21:28.965Z,11.88
2023-03-24T18:23:56.222Z,4.80
2023-03-24T18:26:23.321Z,5.07
2023-03-24T18:28:50.095Z,4.88
2023-03-24T18:31:20.029Z,8.50
2023-03-24T18:33:50.622Z,6.75
2023-03-24T18:36:26.202Z,5.70
2023-03-24T18:39:05.514Z,5.63
2023-03-24T18:41:37.034Z,8.88
2023-03-24T18:44:07.218Z,5.70
2023-03-24T18:46:34.464Z,7.28
2023-03-24T18:49:01.159Z,7.45
2023-03-24T18:51:28.139Z,8.18
2023-03-24T18:53:55.216Z,11.30
2023-03-24T18:56:22.985Z,5.60
2023-03-24T18:58:51.612Z,4.38
2023-03-24T19:01:22.526Z,9.70
2023-03-24T19:03:50.984Z,7.70
2023-03-24T19:06:18.665Z,9.63
2023-03-24T19:08:49.442Z,5.47
2023-03-24T19:11:16.436Z,9.57
2023-03-24T19:13:46.315Z,9.80
2023-03-24T19:16:13.231Z,8.85
2023-03-24T19:18:40.120Z,8.13
2023-03-24T19:21:07.084Z,7.15
2023-03-24T19:23:34.734Z,3.95
2023-03-24T19:26:01.936Z,8.10
2023-03-24T19:28:31.219Z,2.80
2023-03-24T19:30:59.632Z,2.05
2023-03-24T19:33:27.315Z,5.75
2023-03-24T19:35:54.564Z,8.48
2023-03-24T19:38:23.844Z,3.60
2023-03-24T19:40:52.710Z,5.43
2023-03-24T19:43:20.605Z,5.50
2023-03-24T19:45:51.467Z,1.85
2023-03-24T19:48:18.943Z,7.32
2023-03-24T19:53:36.905Z,5.43
2023-03-24T19:56:04.192Z,6.18
2023-03-24T19:58:31.023Z,5.35
2023-03-24T20:00:57.880Z,7.60
2023-03-24T20:03:24.668Z,9.27
2023-03-24T20:05:51.511Z,7.63
2023-03-24T20:08:19.307Z,3.92
2023-03-24T20:10:46.173Z,4.07
2023-03-24T20:13:12.823Z,4.57
2023-03-24T20:15:39.813Z,6.28
2023-03-24T20:18:06.828Z,7.65
2023-03-24T20:20:33.517Z,5.75
2023-03-24T20:23:00.465Z,4.10
2023-03-24T20:25:27.243Z,5.03
2023-03-24T20:27:54.040Z,3.53
2023-03-24T20:30:20.782Z,3.90
2023-03-24T20:32:48.147Z,5.75
2023-03-24T20:35:15.347Z,3.85
2023-03-24T20:37:42.178Z,8.70
2023-03-24T20:40:09.822Z,6.60
2023-03-24T20:42:37.888Z,5.20
2023-03-24T20:45:06.640Z,5.43
2023-03-24T20:47:33.389Z,4.03
2023-03-24T20:50:00.034Z,5.85
2023-03-24T20:52:27.182Z,6.90
2023-03-24T20:54:54.071Z,7.22
2023-03-24T20:57:21.078Z,8.38
2023-03-24T20:59:51.060Z,5.32
2023-03-24T21:02:18.907Z,19.23
2023-03-24T21:04:45.765Z,7.82
2023-03-24T21:07:12.365Z,7.57
2023-03-24T21:09:39.552Z,5.50
2023-03-24T21:12:06.676Z,6.38
2023-03-24T21:14:34.192Z,6.22
2023-03-24T21:17:01.452Z,8.05
2023-03-24T21:19:28.700Z,3.60
2023-03-24T21:21:56.264Z,3.35
2023-03-24T21:24:24.041Z,6.03
2023-03-24T21:26:51.241Z,9.38
2023-03-24T21:29:18.083Z,8.65
2023-03-24T21:31:45.170Z,4.22
2023-03-24T21:34:12.071Z,4.97
2023-03-24T21:36:39.124Z,2.63
2023-03-24T21:39:11.848Z,2.70
2023-03-24T21:41:38.851Z,7.13
2023-03-24T21:44:07.816Z,5.95
2023-03-24T21:46:34.486Z,4.93
2023-03-24T21:49:01.203Z,7.20
2023-03-24T21:51:34.924Z,2.75
2023-03-24T21:54:04.616Z,5.05
2023-03-24T21:58:59.133Z,4.65
2023-03-24T22:01:26.249Z,3.20
2023-03-24T22:03:54.354Z,1.10
2023-03-24T22:06:22.870Z,1.58
2023-03-24T22:08:50.549Z,1.40
2023-03-24T22:11:19.032Z,2.67
2023-03-24T22:13:46.400Z,3.42
2023-03-24T22:16:13.508Z,2.55
2023-03-24T22:18:40.442Z,2.72
2023-03-24T22:21:09.436Z,1.17
2023-03-24T22:23:39.174Z,0.90
2023-03-24T22:28:35.524Z,1.35
2023-03-24T22:31:07.895Z,1.13
2023-03-24T22:33:34.742Z,1.13
2023-03-24T22:36:02.160Z,1.95
2023-03-24T22:38:29.905Z,1.65
2023-03-24T22:41:02.271Z,1.50
2023-03-24T22:43:29.528Z,4.78
2023-03-24T22:45:56.394Z,0.85
2023-03-24T22:48:23.777Z,1.02
2023-03-24T22:50:50.927Z,1.00
2023-03-24T22:53:17.601Z,2.90
2023-03-24T22:55:45.128Z,2.47
2023-03-24T22:58:15.300Z,0.77
2023-03-24T23:00:43.761Z,1.27
2023-03-24T23:03:10.799Z,2.38
2023-03-24T23:05:45.802Z,0.73
2023-03-24T23:08:14.970Z,1.83
2023-03-24T23:10:43.588Z,0.80
2023-03-24T23:13:10.551Z,1.10
2023-03-24T23:15:43.015Z,1.10
2023-03-24T23:18:10.789Z,1.35
2023-03-24T23:20:37.953Z,2.35
2023-03-24T23:23:06.711Z,2.15
2023-03-24T23:25:42.298Z,1.70
2023-03-24T23:28:10.823Z,0.88
2023-03-24T23:30:38.306Z,1.25
2023-03-24T23:33:05.434Z,2.63
2023-03-24T23:35:33.347Z,1.98
2023-03-24T23:38:02.226Z,2.55
2023-03-24T23:40:28.940Z,1.45
2023-03-24T23:42:55.883Z,3.40
2023-03-24T23:45:22.675Z,1.77
2023-03-24T23:47:51.097Z,2.63
2023-03-24T23:50:19.185Z,3.25
2023-03-24T23:52:45.981Z,1.00
2023-03-24T23:55:14.392Z,1.88
2023-03-24T23:57:42.544Z,0.88
